Terminal Aerodrome Forecast
Issued by NWS Springfield, MO

Home | Current Version | Previous Version | Text Only | Print | Product List | Glossary On
Versions: 1 2 3 4 5 6 7 8 9 10 11 12 13 14 15 16 17 18 19
000
FTUS43 KSGF 231100
TAFSGF
TAF
KSGF 231120Z 2312/2412 16010KT P6SM VCSH OVC030
     FM231800 15012KT P6SM VCSH BKN040
     FM240100 14014KT P6SM -SHRA VCTS SCT040CB OVC100
     FM240800 15014KT 6SM -RA VCTS SCT025 OVC050CB=

USA.gov is the U.S. government's official web portal to all federal, state and local government web resources and services.